NCAR-RAP Real-Time Weather Data

Output produced by METARs form (12 May 2021  10:57 UTC)
found at http://weather.rap.ucar.edu/surface/
 
KCHS 121050Z 11007KT 10SM FEW006 BKN055 BKN110 21/20 A3001 RMK AO2 RAE46 P0004 T02060200
KCHS 120956Z 10004KT 8SM -RA FEW008 BKN065 OVC100 21/20 A3002 RMK AO2 SLP164 P0004 T02060200
KCHS 120943Z 13007KT 6SM -RA BR SCT004 BKN080 OVC120 21/20 A3001 RMK AO2 P0003 T02060200
KCHS 120914Z 08007KT 6SM -RA BR BKN008 BKN036 OVC110 21/21 A3000 RMK AO2 P0002 T02110206
KCHS 120856Z 07003KT 6SM -RA BR BKN006 BKN011 OVC110 21/19 A3002 RMK AO2 SLP166 P0008 60021 T02060194 58013
KCHS 120841Z 00000KT 7SM -RA BKN004 BKN090 OVC110 21/20 A3004 RMK AO2 P0008 T02060200
KCHS 120756Z 00000KT 6SM RA BR SCT006 BKN070 OVC090 21/20 A3005 RMK AO2 SLP173 P0012 T02060200
KCHS 120734Z 27006KT 6SM -RA BR BKN006 OVC018 21/20 A3005 RMK AO2 LTG DSNT N AND S CB DSNT S AND SW P0006 T02110200
KCHS 120719Z 24003KT 6SM VCTS RA BR BKN006 OVC018CB 21/21 A3005 RMK AO2 LTG DSNT SW-N OCNL LTGICCG NW TS VC NW MOV NE P0004 T02110206
KCHS 120656Z 14003KT 6SM -RA BR BKN006 OVC018 21/21 A3005 RMK AO2 LTG DSNT SW AND W RAE23B52 SLP175 CB DSNT W P0001 T02110206
KCHS 120613Z 12007KT 6SM -RA BR BKN006 BKN042 OVC100 21/20 A3005 RMK AO2 LTG DSNT SE-W CB DSNT SE-SW-W P0001 T02060200
KCHS 120556Z 08004KT 8SM -RA FEW030 SCT050 OVC100 20/19 A3006 RMK AO2 LTG DSNT SE-SW SLP179 CB DSNT SE-SW P0003 60040 T02000194 10233 20194 58006
KCHS 120533Z 05003KT 8SM -RA FEW030 SCT050 OVC100 20/19 A3007 RMK AO2 LTG DSNT S CB DSNT S P0002 T02000189
KCHS 120518Z 00000KT 6SM VCTS -RA BR FEW030CB SCT050 OVC100 20/19 A3008 RMK AO2 LTG DSNT SE AND S TSE13 OCNL LTGICCG S TS VC S MOV E P0001 T02000189
KCHS 120456Z 10004KT 6SM -RA BR FEW030 SCT055 OVC090 20/18 A3008 RMK AO2 LTG DSNT SE AND S SLP184 CB DSNT SE-SW-W P0014 T02000183 403060194
KCHS 120356Z 11007KT 6SM RA BR FEW025 SCT055 OVC090 21/19 A3008 RMK AO2 LTG DSNT S AND SW TSE44 SLP186 CB DSNT S AND SW P0010 T02060194
KCHS 120344Z 13006KT 6SM RA BR FEW015 SCT055 OVC090 21/19 A3009 RMK AO2 LTG DSNT SW TSE44 CB DSNT SW P0006 T02060194
KCHS 120256Z 11008KT 6SM -TSRA BR FEW012 BKN030CB OVC036 21/19 A3008 RMK AO2 LTG DSNT SW AND W RAB0157 TSB43 SLP185 OCNL LTGICCG W TS W MOV SE P0013 60013 T02060189 51017
KCHS 120246Z 11008KT 4SM TSRA BR SCT012 BKN030CB OVC050 21/19 A3008 RMK AO2 LTG DSNT W RAB0157 TSB43 OCNL LTGICCG W TS W MOV SE P0012 T02060194
KCHS 120228Z 06005KT 4SM VCTS RA BR SCT012 BKN030CB OVC050 21/19 A3007 RMK AO2 LTG DSNT W RAB0157 OCNL LTGIC W TS VC W MOV SE P0008 T02060189
KCHS 120156Z 01011KT 10SM SCT015 BKN020 BKN045 21/18 A3007 RMK AO2 LTG DSNT W SLP183 CB DSNT W T02110178
KCHS 120056Z 09008KT 10SM SCT015 SCT045 BKN060 22/18 A3005 RMK AO2 LTG DSNT N SLP176 CB DSNT N T02220183
KCHS 112356Z 13007KT 10SM FEW025 SCT035 BKN200 23/20 A3003 RMK AO2 LTG DSNT NE SLP169 CB DSNT NE T02330200 10306 20233 53002
KCHS 112256Z 15008KT 10SM FEW025 SCT035 BKN200 24/19 A3002 RMK AO2 LTG DSNT N SLP164 CB DSNT N T02440194
KCHS 112156Z 15010KT 10SM FEW025 SCT030 BKN040 25/18 A3002 RMK AO2 SLP165 T02500183
KCHS 112056Z 11011KT 10SM FEW040 SCT055 BKN080 26/19 A3002 RMK AO2 SLP166 T02560194 58004
KCHS 111956Z 13011KT 10SM FEW035 BKN055 BKN070 26/19 A3003 RMK AO2 SLP170 T02610194